Flinterborg — PHPH — position and weather

sailwx.info

Track history (hours):
 
Tides and Currents Weather Stations Pressure Air Temp Water Temp Dewpoint Dewpoint Depression Visibility Wind Speed Wind Dir Waves Ship Positions

Flinterborg

Last reported at 2015-May-29 13:33 UTC. Time now 2015-May-29 14:20 UTC.
Position N 56°27' E 012°17'.

Length 111 m; draft 6.4 m.

Type: Ship. MMSI: 245433000.

Date/timePositionNaut miles runAvg speedWind from/ knotsBaromVisibWave heightAir tempDewpointWater temp
2015-May-29 13:33N 56°27' E 012°17'1111.3
2015-May-29 12:34N 56°17' E 012°24'1111.0
2015-May-29 11:33N 56°07' E 012°34'1111.1
2015-May-29 10:34N 55°57' E 012°43'1111.1
2015-May-29 09:34N 55°46' E 012°42'1010.0
2015-May-29 08:34N 55°36' E 012°42'10 9.7
2015-May-29 07:34N 55°26' E 012°42'9 9.2
2015-May-29 06:33N 55°17' E 012°46'1110.9
2015-May-29 05:34N 55°16' E 013°05'1111.4
2015-May-29 04:33N 55°15' E 013°25'1111.3
2015-May-29 03:33N 55°15' E 013°45'1111.5
2015-May-29 02:33N 55°14' E 014°05'1010.4
2015-May-29 01:33N 55°18' E 014°22'1111.4
2015-May-29 00:33N 55°26' E 014°35'1111.3
2015-May-28 23:34N 55°32' E 014°52'1211.2
2015-May-28 22:30N 55°38' E 015°10'2211.4
2015-May-28 20:33N 55°50' E 015°44'1111.1
2015-May-28 19:33N 55°56' E 016°01'8710.6
2015-May-28 11:24N 57°08' E 017°27'1011.1
2015-May-28 10:31N 57°17' E 017°34'2611.4
2015-May-28 08:12N 57°41' E 017°55'  
2015-May-21 00:19N 55°16' E 015°58'912.1
2015-May-20 23:33N 55°08' E 015°48'1211.8
2015-May-20 22:33N 54°59' E 015°36'1211.9
2015-May-20 21:33N 54°50' E 015°23'1212.1
2015-May-20 20:33N 54°40' E 015°11'6 0.2
2015-May-19 15:21N 54°36' E 015°04'1011.8
2015-May-19 14:32N 54°43' E 015°14'  
Track history (hours):
 
Tides and Currents Weather Stations Pressure Air Temp Water Temp Dewpoint Dewpoint Depression Visibility Wind Speed Wind Dir Waves Ship Positions

Flinterborg

Last reported at 2015-May-29 13:33 UTC. Time now 2015-May-29 14:20 UTC.
Position N 56°27' E 012°17'.

Length 111 m; draft 6.4 m.

Type: Ship. MMSI: 245433000.

Date/timePositionNaut miles runAvg speedWind from/ knotsBaromVisibWave heightAir tempDewpointWater temp
2015-May-29 13:33N 56°27' E 012°17'1111.3
2015-May-29 12:34N 56°17' E 012°24'1111.0
2015-May-29 11:33N 56°07' E 012°34'1111.1
2015-May-29 10:34N 55°57' E 012°43'1111.1
2015-May-29 09:34N 55°46' E 012°42'1010.0
2015-May-29 08:34N 55°36' E 012°42'10 9.7
2015-May-29 07:34N 55°26' E 012°42'9 9.2
2015-May-29 06:33N 55°17' E 012°46'1110.9
2015-May-29 05:34N 55°16' E 013°05'1111.4
2015-May-29 04:33N 55°15' E 013°25'1111.3
2015-May-29 03:33N 55°15' E 013°45'1111.5
2015-May-29 02:33N 55°14' E 014°05'1010.4
2015-May-29 01:33N 55°18' E 014°22'1111.4
2015-May-29 00:33N 55°26' E 014°35'1111.3
2015-May-28 23:34N 55°32' E 014°52'1211.2
2015-May-28 22:30N 55°38' E 015°10'2211.4
2015-May-28 20:33N 55°50' E 015°44'1111.1
2015-May-28 19:33N 55°56' E 016°01'8710.6
2015-May-28 11:24N 57°08' E 017°27'1011.1
2015-May-28 10:31N 57°17' E 017°34'2611.4
2015-May-28 08:12N 57°41' E 017°55'  
2015-May-21 00:19N 55°16' E 015°58'912.1
2015-May-20 23:33N 55°08' E 015°48'1211.8
2015-May-20 22:33N 54°59' E 015°36'1211.9
2015-May-20 21:33N 54°50' E 015°23'1212.1
2015-May-20 20:33N 54°40' E 015°11'6 0.2
2015-May-19 15:21N 54°36' E 015°04'1011.8
2015-May-19 14:32N 54°43' E 015°14'  

Dump ship's entire track history